Time;durP1;ratioP1;P1;durP2;ratioP2;P2;SDS_P1;SDS_P2;PMS_P1;PMS_P2;Temp;Humidity;BMP_temperature;BMP_pressure;BME280_temperature;BME280_humidity;BME280_pressure;Samples;Min_cycle;Max_cycle;Signal;HPM_P1;HPM_P2
2022/08/04 02:48:04;;;;;;;2.20;1.00;;;21.50;83.60;;;;;;5046379;23;88323;-79
2022/08/04 02:50:35;;;;;;;4.80;1.60;;;21.40;83.20;;;;;;4879923;28;88216;-80
2022/08/04 02:53:03;;;;;;;3.63;1.42;;;21.50;83.00;;;;;;4880615;28;87458;-80
2022/08/04 02:55:31;;;;;;;2.65;1.13;;;21.50;83.40;;;;;;4880604;28;86594;-79
2022/08/04 02:58:00;;;;;;;2.30;1.25;;;21.60;82.50;;;;;;4879573;28;87096;-82
2022/08/04 03:00:27;;;;;;;2.92;1.15;;;21.70;82.30;;;;;;4878734;28;87227;-79
2022/08/04 03:03:20;;;;;;;3.50;1.55;;;21.80;81.10;;;;;;4879198;28;86948;-77
2022/08/04 03:05:55;;;;;;;3.05;1.27;;;21.80;81.10;;;;;;4866385;28;87254;-78
2022/08/04 03:08:29;;;;;;;3.25;1.27;;;21.80;82.50;;;;;;4881111;28;86989;-77
2022/08/04 03:11:21;;;;;;;4.22;1.20;;;21.60;82.50;;;;;;4880002;28;87987;-78
2022/08/04 03:14:03;;;;;;;2.40;1.30;;;21.60;83.00;;;;;;4873127;28;88530;-78
2022/08/04 03:16:34;;;;;;;3.22;1.23;;;21.50;83.40;;;;;;4880322;28;86468;-76
2022/08/04 03:18:59;;;;;;;3.05;1.27;;;21.40;83.90;;;;;;4879993;28;86757;-78
2022/08/04 03:21:55;;;;;;;2.40;1.20;;;21.40;83.90;;;;;;4880177;28;87068;-77
2022/08/04 03:24:36;;;;;;;2.50;1.10;;;21.50;83.20;;;;;;4879749;28;87198;-77
2022/08/04 03:27:26;;;;;;;1.77;1.10;;;21.50;82.70;;;;;;4879884;28;87389;-76
2022/08/04 03:30:29;;;;;;;2.92;1.17;;;21.60;82.10;;;;;;4880975;28;86225;-76
2022/08/04 03:32:57;;;;;;;5.50;1.08;;;21.70;81.70;;;;;;4880278;28;87186;-76
2022/08/04 03:35:29;;;;;;;2.50;1.08;;;21.70;81.40;;;;;;4880001;28;87318;-76
2022/08/04 03:38:06;;;;;;;1.95;1.05;;;21.80;81.30;;;;;;4881499;28;88110;-77
2022/08/04 03:40:59;;;;;;;2.42;1.15;;;21.80;80.90;;;;;;4882689;28;87045;-79
2022/08/04 03:43:48;;;;;;;2.78;1.00;;;21.90;80.60;;;;;;4867045;28;86976;-78
2022/08/04 03:46:41;;;;;;;2.95;1.10;;;21.90;80.90;;;;;;4862492;28;88025;-78
2022/08/04 03:49:37;;;;;;;2.17;1.20;;;21.80;80.60;;;;;;4883850;28;87512;-77
2022/08/04 03:55:21;;;;;;;2.00;0.90;;;21.90;80.20;;;;;;4882487;28;87377;-77
2022/08/04 03:57:59;;;;;;;5.93;1.17;;;21.90;80.00;;;;;;4883006;28;87100;-79
2022/08/04 04:01:02;;;;;;;3.08;1.02;;;21.90;80.30;;;;;;4864550;29;87128;-77
2022/08/04 04:03:57;;;;;;;2.80;1.02;;;21.90;80.60;;;;;;4885116;28;87006;-76
2022/08/04 04:06:29;;;;;;;3.45;1.02;;;21.90;80.30;;;;;;4896164;28;87987;-75
2022/08/04 04:09:26;;;;;;;4.43;1.20;;;21.80;80.30;;;;;;4906685;28;87668;-78
2022/08/04 04:12:00;;;;;;;3.75;1.08;;;21.80;80.60;;;;;;4894211;28;86828;-75
2022/08/04 04:14:40;;;;;;;4.25;1.10;;;21.90;80.60;;;;;;4870366;28;87180;-77
2022/08/04 04:17:28;;;;;;;5.78;1.20;;;21.90;80.90;;;;;;4880160;28;87063;-76
2022/08/04 04:20:30;;;;;;;2.40;1.10;;;21.90;80.30;;;;;;4881940;28;87849;-76
2022/08/04 04:23:33;;;;;;;2.20;1.20;;;21.90;80.50;;;;;;4882491;28;87171;-81
2022/08/04 04:26:17;;;;;;;2.17;1.15;;;22.00;80.00;;;;;;4880485;28;86289;-77
2022/08/04 04:29:13;;;;;;;4.32;1.33;;;22.00;80.30;;;;;;4881972;28;89035;-77
2022/08/04 04:31:52;;;;;;;5.38;1.50;;;22.00;82.00;;;;;;4864413;29;87458;-77
2022/08/04 04:34:39;;;;;;;2.58;1.10;;;22.60;81.50;;;;;;4876407;28;88286;-81
2022/08/04 04:37:33;;;;;;;5.18;1.73;;;23.00;80.10;;;;;;4895929;28;86930;-76
2022/08/04 04:40:39;;;;;;;2.45;1.25;;;23.50;78.70;;;;;;4897866;28;87600;-79
2022/08/04 04:43:13;;;;;;;5.38;1.20;;;24.10;76.20;;;;;;4863915;29;86951;-77
2022/08/04 04:45:53;;;;;;;3.42;1.02;;;24.90;73.90;;;;;;4869468;28;87020;-77
2022/08/04 04:48:50;;;;;;;3.28;1.15;;;25.50;72.90;;;;;;4879193;28;87381;-78
2022/08/04 04:51:19;;;;;;;3.20;1.50;;;26.10;70.10;;;;;;4881016;28;88110;-77
2022/08/04 04:53:51;;;;;;;;;;;26.70;68.40;;;;;;4883170;28;87138;-78
2022/08/04 04:56:41;;;;;;;4.72;1.65;;;26.90;65.90;;;;;;4883143;28;87377;-77
2022/08/04 04:59:12;;;;;;;3.00;1.52;;;26.90;65.80;;;;;;4882182;28;88982;-77
2022/08/04 05:02:00;;;;;;;2.70;1.88;;;27.30;67.60;;;;;;4881372;28;88100;-78
2022/08/04 05:04:36;;;;;;;4.72;1.63;;;27.80;62.70;;;;;;4882286;28;87653;-79
2022/08/04 05:07:32;;;;;;;3.55;1.70;;;27.50;65.80;;;;;;4882030;28;86875;-77
2022/08/04 05:10:16;;;;;;;4.10;1.60;;;28.20;62.10;;;;;;4886269;28;88022;-78
2022/08/04 05:12:51;;;;;;;5.47;1.60;;;28.40;60.60;;;;;;4892157;28;86982;-77
2022/08/04 05:15:19;;;;;;;3.03;1.88;;;28.90;60.40;;;;;;4880170;28;87232;-80
2022/08/04 05:17:51;;;;;;;4.70;1.35;;;29.30;59.40;;;;;;4882406;28;87691;-76
2022/08/04 05:20:27;;;;;;;3.17;1.45;;;29.80;58.90;;;;;;4882805;28;85934;-78
2022/08/04 05:23:01;;;;;;;4.30;1.60;;;30.50;56.70;;;;;;4881951;28;87712;-77
2022/08/04 05:25:56;;;;;;;2.72;1.75;;;31.50;55.20;;;;;;4880900;28;88282;-78
2022/08/04 05:28:27;;;;;;;;;;;32.60;52.00;;;;;;4881583;28;88259;-77
2022/08/04 05:31:09;;;;;;;2.50;1.52;;;33.20;50.90;;;;;;4883198;28;86958;-78
2022/08/04 05:33:53;;;;;;;3.90;1.65;;;33.90;50.90;;;;;;4880736;28;87152;-78
2022/08/04 05:36:21;;;;;;;2.45;1.40;;;34.20;49.40;;;;;;4875254;28;87449;-81
2022/08/04 05:38:53;;;;;;;6.13;1.90;;;34.40;48.80;;;;;;4878631;28;86969;-77
2022/08/04 05:41:20;;;;;;;3.30;1.42;;;34.40;48.70;;;;;;4880886;28;87467;-78
2022/08/04 05:43:47;;;;;;;3.50;1.38;;;34.80;48.80;;;;;;4881358;28;87166;-77
2022/08/04 05:46:15;;;;;;;3.33;1.98;;;35.40;46.30;;;;;;4879199;28;86363;-78
2022/08/04 05:48:42;;;;;;;4.68;2.03;;;35.90;46.80;;;;;;4881716;28;87020;-79
2022/08/04 05:51:09;;;;;;;2.58;2.03;;;36.20;45.70;;;;;;4880727;28;86817;-78
2022/08/04 05:53:36;;;;;;;3.33;1.92;;;36.80;44.10;;;;;;4880531;28;87969;-78
2022/08/04 05:56:03;;;;;;;5.68;2.03;;;37.00;44.70;;;;;;4881579;28;87933;-78
2022/08/04 05:58:30;;;;;;;3.15;2.05;;;36.00;46.80;;;;;;4881614;28;87269;-77
2022/08/04 06:01:00;;;;;;;2.88;2.30;;;36.50;47.70;;;;;;4880441;28;87164;-78
2022/08/04 06:03:28;;;;;;;4.13;2.95;;;37.20;47.40;;;;;;4880709;28;88192;-80
2022/08/04 06:05:56;;;;;;;3.70;2.35;;;38.10;45.40;;;;;;4879625;28;87172;-81
2022/08/04 06:08:23;;;;;;;5.68;2.33;;;38.00;45.90;;;;;;4880629;28;86844;-80
2022/08/04 06:10:51;;;;;;;3.40;2.10;;;37.90;45.70;;;;;;4892386;28;86403;-79
2022/08/04 06:13:24;;;;;;;4.28;2.25;;;38.40;45.40;;;;;;4900227;28;88215;-79
2022/08/04 06:15:53;;;;;;;4.43;2.85;;;38.40;46.00;;;;;;4886676;28;87481;-77
2022/08/04 06:18:19;;;;;;;3.33;1.98;;;38.80;44.90;;;;;;4877621;28;87996;-78
2022/08/04 06:20:47;;;;;;;3.75;2.17;;;38.20;45.50;;;;;;4880438;28;87584;-79
2022/08/04 06:23:18;;;;;;;2.30;1.83;;;37.40;45.50;;;;;;4881669;28;87237;-80
2022/08/04 06:25:48;;;;;;;4.78;2.28;;;38.10;46.00;;;;;;4878789;28;86949;-79
2022/08/04 06:28:16;;;;;;;3.55;2.15;;;39.10;44.30;;;;;;4880907;28;86884;-78
2022/08/04 06:30:46;;;;;;;3.45;2.15;;;40.10;43.40;;;;;;4869485;28;87042;-78
2022/08/04 06:33:25;;;;;;;3.88;2.42;;;40.70;42.00;;;;;;4877561;28;88427;-81
2022/08/04 06:35:54;;;;;;;3.35;2.33;;;40.80;42.00;;;;;;4876070;28;86937;-79
2022/08/04 06:38:26;;;;;;;3.40;2.28;;;41.70;41.10;;;;;;4879936;28;87161;-78
2022/08/04 06:40:53;;;;;;;4.53;2.88;;;42.00;41.50;;;;;;4879053;28;87373;-80
2022/08/04 06:43:20;;;;;;;4.35;3.25;;;42.50;40.50;;;;;;4880813;28;88187;-78
2022/08/04 06:45:47;;;;;;;4.07;2.30;;;43.00;39.70;;;;;;4882260;28;88355;-78
2022/08/04 06:48:16;;;;;;;3.55;2.88;;;43.50;39.10;;;;;;4881181;28;86928;-80
2022/08/04 06:50:46;;;;;;;7.30;4.50;;;44.00;38.70;;;;;;4881877;28;87064;-79
2022/08/04 06:53:12;;;;;;;3.90;3.50;;;43.70;38.90;;;;;;4868958;28;87577;-78
2022/08/04 06:55:42;;;;;;;4.05;3.67;;;44.50;38.40;;;;;;4879778;28;87389;-81
2022/08/04 06:58:09;;;;;;;6.63;3.63;;;45.00;37.40;;;;;;4880160;28;87483;-79
2022/08/04 07:00:36;;;;;;;3.80;2.60;;;44.70;37.30;;;;;;4880951;28;86355;-78
2022/08/04 07:03:03;;;;;;;3.60;3.10;;;44.70;37.70;;;;;;4879673;28;88264;-78
2022/08/04 07:05:29;;;;;;;4.90;3.40;;;44.80;37.10;;;;;;4880039;28;88162;-82
2022/08/04 07:07:56;;;;;;;4.38;3.90;;;44.80;37.00;;;;;;4878722;28;87990;-78
2022/08/04 07:10:23;;;;;;;5.28;3.53;;;45.10;35.90;;;;;;4886331;28;87069;-78
2022/08/04 07:12:50;;;;;;;4.70;4.30;;;44.50;37.90;;;;;;4882564;28;86956;-80
2022/08/04 07:15:17;;;;;;;7.07;3.55;;;44.90;36.70;;;;;;4879239;28;87889;-80
2022/08/04 07:17:45;;;;;;;3.88;3.25;;;45.40;37.20;;;;;;4879482;28;87055;-79
2022/08/04 07:20:11;;;;;;;3.78;3.47;;;45.10;36.20;;;;;;4878643;28;87010;-80
2022/08/04 07:22:39;;;;;;;5.38;4.53;;;44.90;36.90;;;;;;4879564;28;87458;-79
2022/08/04 07:25:09;;;;;;;4.25;3.75;;;45.10;37.20;;;;;;4882471;28;87416;-78
2022/08/04 07:27:35;;;;;;;9.93;3.88;;;45.00;37.20;;;;;;4883541;28;86849;-79
2022/08/04 07:30:06;;;;;;;3.83;3.38;;;45.90;37.20;;;;;;4884330;28;86931;-83
2022/08/04 07:32:32;;;;;;;3.88;3.47;;;45.50;37.40;;;;;;4879551;28;89531;-81
2022/08/04 07:34:58;;;;;;;5.97;3.80;;;45.10;37.80;;;;;;4867701;28;87823;-79
2022/08/04 07:37:24;;;;;;;4.78;4.38;;;46.60;36.80;;;;;;4880858;28;87022;-80
2022/08/04 07:39:50;;;;;;;4.43;4.05;;;46.60;37.50;;;;;;4880214;28;86708;-80
2022/08/04 07:42:20;;;;;;;5.05;4.65;;;45.70;37.90;;;;;;4881659;28;87066;-80
2022/08/04 07:44:46;;;;;;;6.13;5.53;;;46.60;36.50;;;;;;4880765;28;88046;-79
2022/08/04 07:47:12;;;;;;;5.18;3.63;;;46.50;36.80;;;;;;4879037;28;86949;-79
2022/08/04 07:49:37;;;;;;;6.20;5.70;;;46.40;36.40;;;;;;4880254;28;86643;-79
2022/08/04 07:52:05;;;;;;;5.57;5.07;;;46.30;36.60;;;;;;4879312;28;88170;-80
2022/08/04 07:54:32;;;;;;;5.22;4.72;;;46.50;36.40;;;;;;4882325;28;87283;-81
2022/08/04 07:56:58;;;;;;;5.68;5.20;;;47.10;35.70;;;;;;4880340;28;88350;-81
2022/08/04 07:59:23;;;;;;;5.72;5.20;;;47.40;34.80;;;;;;4883454;28;87140;-83
2022/08/04 08:01:50;;;;;;;5.57;4.53;;;46.70;35.60;;;;;;4881332;28;87181;-80
2022/08/04 08:04:16;;;;;;;6.88;6.22;;;47.70;34.20;;;;;;4882119;28;87058;-83
2022/08/04 08:06:42;;;;;;;6.68;5.65;;;48.30;34.00;;;;;;4882714;28;86853;-81
2022/08/04 08:09:08;;;;;;;6.45;5.45;;;48.00;34.60;;;;;;4881531;28;87463;-82
2022/08/04 08:11:34;;;;;;;5.30;4.82;;;49.00;33.80;;;;;;4887299;28;87468;-80
2022/08/04 08:14:01;;;;;;;5.55;4.90;;;50.10;33.60;;;;;;4883749;28;88066;-81
2022/08/04 08:16:27;;;;;;;6.72;6.05;;;50.90;31.80;;;;;;4882465;28;86876;-82
2022/08/04 08:18:54;;;;;;;6.53;5.90;;;51.20;31.50;;;;;;4885111;28;87239;-80
2022/08/04 08:21:21;;;;;;;8.85;8.05;;;50.90;31.50;;;;;;4882513;28;88323;-81
2022/08/04 08:23:47;;;;;;;7.03;6.32;;;50.80;31.30;;;;;;4884148;28;87713;-81
2022/08/04 08:26:12;;;;;;;6.18;5.63;;;51.30;30.90;;;;;;4887667;28;87507;-82
2022/08/04 08:28:38;;;;;;;7.10;5.72;;;51.30;31.00;;;;;;4888474;28;86967;-80
2022/08/04 08:31:05;;;;;;;5.70;5.18;;;51.20;31.10;;;;;;4886878;28;86539;-82
2022/08/04 08:33:31;;;;;;;5.03;4.63;;;51.60;31.40;;;;;;4883817;28;87388;-81
2022/08/04 08:36:09;;;;;;;8.18;6.93;;;51.60;31.00;;;;;;4887543;28;86970;-84
2022/08/04 08:39:12;;;;;;;7.07;6.10;;;52.10;30.90;;;;;;4888361;28;86105;-81
2022/08/04 08:41:56;;;;;;;7.05;6.45;;;52.50;30.60;;;;;;4884808;28;86967;-82
2022/08/04 08:44:40;;;;;;;7.55;6.82;;;52.80;30.30;;;;;;4885815;28;87267;-82
2022/08/04 08:47:34;;;;;;;9.18;8.48;;;51.80;30.90;;;;;;4880740;28;88286;-80
2022/08/04 08:50:18;;;;;;;8.27;7.47;;;52.10;31.80;;;;;;4864233;29;87300;-80
2022/08/04 08:52:53;;;;;;;8.57;7.78;;;52.10;31.20;;;;;;4863633;29;88553;-81
2022/08/04 08:55:22;;;;;;;8.82;8.02;;;52.90;30.60;;;;;;4864799;29;87050;-81
2022/08/04 08:58:20;;;;;;;9.30;8.50;;;54.20;30.30;;;;;;4870821;28;87068;-80
2022/08/04 09:00:54;;;;;;;9.65;8.93;;;54.10;29.90;;;;;;4883381;28;87324;-80
2022/08/04 09:03:55;;;;;;;10.82;9.90;;;52.60;30.90;;;;;;4883139;28;87288;-80
2022/08/04 09:06:43;;;;;;;9.13;7.07;;;53.30;30.40;;;;;;4883549;28;87423;-79
2022/08/04 09:09:29;;;;;;;9.35;8.63;;;54.00;30.00;;;;;;4883408;28;87048;-83
2022/08/04 09:12:12;;;;;;;9.32;8.63;;;55.20;29.50;;;;;;4884543;28;87049;-81
2022/08/04 09:15:04;;;;;;;10.57;9.75;;;55.70;29.10;;;;;;4882553;28;89094;-80
2022/08/04 09:17:34;;;;;;;10.63;9.63;;;55.00;28.80;;;;;;4883848;28;87926;-84
2022/08/04 09:20:32;;;;;;;11.63;10.48;;;56.00;28.30;;;;;;4884048;28;87254;-82
2022/08/04 09:23:11;;;;;;;10.77;9.88;;;55.90;28.70;;;;;;4876731;28;86976;-81
2022/08/04 09:25:53;;;;;;;10.52;9.63;;;55.10;29.00;;;;;;4883193;28;88091;-80
2022/08/04 09:28:23;;;;;;;11.43;10.48;;;54.70;29.30;;;;;;4883989;28;87085;-80
2022/08/04 09:31:09;;;;;;;12.60;11.57;;;54.50;29.10;;;;;;4882827;28;87548;-81
2022/08/04 09:33:38;;;;;;;11.55;10.52;;;54.20;29.60;;;;;;4862915;29;86254;-79
2022/08/04 09:36:25;;;;;;;11.05;10.15;;;54.40;29.20;;;;;;4863762;29;87241;-81
2022/08/04 09:38:50;;;;;;;;;;;54.10;29.60;;;;;;4864351;29;87032;-80
2022/08/04 09:41:29;;;;;;;11.15;10.15;;;54.50;29.80;;;;;;4864723;29;88054;-81
2022/08/04 09:44:13;;;;;;;13.57;12.57;;;54.10;29.50;;;;;;4863674;29;87068;-81
2022/08/04 09:46:52;;;;;;;12.55;11.57;;;55.60;28.60;;;;;;4863498;29;87152;-82
2022/08/04 09:49:35;;;;;;;11.93;11.00;;;57.10;28.20;;;;;;4879311;28;87065;-82
2022/08/04 09:52:27;;;;;;;10.93;9.93;;;56.90;27.90;;;;;;4883241;28;87104;-81
2022/08/04 09:55:10;;;;;;;11.80;10.93;;;56.60;28.70;;;;;;4883972;28;86918;-81
2022/08/04 09:57:40;;;;;;;13.75;12.68;;;55.70;29.20;;;;;;4882749;28;86895;-81
2022/08/04 10:00:15;;;;;;;11.13;10.15;;;56.60;28.10;;;;;;4882651;28;87069;-80
2022/08/04 10:02:54;;;;;;;12.07;11.05;;;56.10;29.20;;;;;;4882344;28;86768;-80
2022/08/04 10:05:44;;;;;;;11.95;10.85;;;56.10;28.30;;;;;;4878625;28;87009;-80
2022/08/04 10:08:09;;;;;;;9.95;9.15;;;55.80;28.20;;;;;;4862078;29;88179;-79
2022/08/04 10:11:00;;;;;;;12.77;11.63;;;54.20;29.70;;;;;;4880290;28;88823;-80
2022/08/04 10:13:50;;;;;;;11.27;10.45;;;54.60;29.70;;;;;;4900171;28;87014;-79
2022/08/04 10:16:30;;;;;;;10.20;9.35;;;54.70;29.60;;;;;;4899937;28;86999;-81
2022/08/04 10:19:11;;;;;;;9.68;8.88;;;52.40;30.00;;;;;;4900452;28;87222;-81
2022/08/04 10:22:06;;;;;;;11.05;10.07;;;50.80;30.60;;;;;;4899994;28;87047;-79
2022/08/04 10:25:05;;;;;;;9.45;8.38;;;49.00;31.30;;;;;;4861502;29;87426;-79
2022/08/04 10:27:45;;;;;;;9.18;8.27;;;45.40;34.70;;;;;;4862664;29;86186;-79
2022/08/04 10:30:15;;;;;;;6.15;5.47;;;43.00;36.90;;;;;;4862047;28;86957;-79
2022/08/04 10:32:59;;;;;;;5.78;5.05;;;41.40;39.30;;;;;;4861920;28;86992;-79
2022/08/04 10:35:31;;;;;;;4.25;3.85;;;40.50;40.20;;;;;;4861530;29;87879;-78
2022/08/04 10:38:22;;;;;;;5.32;4.50;;;39.50;42.40;;;;;;4862330;29;87071;-80
2022/08/04 10:40:51;;;;;;;3.92;2.97;;;38.20;44.40;;;;;;4876251;28;88079;-79
2022/08/04 10:43:39;;;;;;;5.57;2.83;;;37.80;44.70;;;;;;4880258;28;87917;-80
2022/08/04 10:46:04;;;;;;;;;;;37.10;44.80;;;;;;4880223;28;87353;-79
2022/08/04 10:48:30;;;;;;;4.43;2.65;;;36.90;45.30;;;;;;4882260;28;86280;-78
2022/08/04 10:51:04;;;;;;;4.82;2.47;;;36.00;46.70;;;;;;4881019;28;87195;-79
2022/08/04 10:53:32;;;;;;;3.58;2.50;;;36.10;49.00;;;;;;4881273;28;88125;-79
2022/08/04 10:56:08;;;;;;;2.75;1.95;;;36.40;47.30;;;;;;4880342;28;86923;-80
2022/08/04 10:58:44;;;;;;;3.22;2.13;;;36.20;45.40;;;;;;4862247;29;87046;-78
2022/08/04 11:01:35;;;;;;;3.65;2.40;;;35.70;46.20;;;;;;4861334;28;88589;-79
2022/08/04 11:04:29;;;;;;;2.63;2.33;;;35.70;47.00;;;;;;4861578;29;87632;-77
2022/08/04 11:06:58;;;;;;;4.55;2.45;;;35.60;46.20;;;;;;4862006;28;87391;-80
2022/08/04 11:09:24;;;;;;;4.13;2.33;;;35.40;46.10;;;;;;4862377;29;87365;-78
2022/08/04 11:12:00;;;;;;;4.88;2.30;;;35.30;47.10;;;;;;4898727;28;86915;-78
2022/08/04 11:14:36;;;;;;;4.68;2.45;;;35.30;47.20;;;;;;4875693;28;87273;-79
2022/08/04 11:17:10;;;;;;;2.17;1.75;;;35.40;44.90;;;;;;4862305;28;87544;-79
2022/08/04 11:19:55;;;;;;;5.65;2.47;;;35.40;44.80;;;;;;4861985;28;86354;-79
2022/08/04 11:22:21;;;;;;;2.70;2.25;;;35.40;45.60;;;;;;4862000;28;86953;-80
2022/08/04 11:25:19;;;;;;;2.17;1.85;;;35.50;43.60;;;;;;4878271;28;86991;-77
2022/08/04 11:28:08;;;;;;;3.40;2.05;;;35.30;45.10;;;;;;4880393;28;88459;-78
2022/08/04 11:30:52;;;;;;;3.13;1.98;;;35.00;43.30;;;;;;4880474;28;87412;-79
2022/08/04 11:33:49;;;;;;;4.43;2.13;;;34.60;46.10;;;;;;4880834;28;87412;-78
2022/08/04 11:36:43;;;;;;;2.25;1.50;;;34.60;47.40;;;;;;4880417;28;87009;-78
2022/08/04 11:39:21;;;;;;;5.43;1.73;;;34.60;46.00;;;;;;4880920;28;86634;-78
2022/08/04 11:41:56;;;;;;;3.05;2.00;;;34.70;46.10;;;;;;4881121;28;86962;-79
2022/08/04 11:44:28;;;;;;;3.85;2.35;;;34.80;47.20;;;;;;4880118;28;87371;-81
2022/08/04 11:46:59;;;;;;;4.50;1.80;;;34.80;44.80;;;;;;4878111;28;88016;-78
2022/08/04 11:49:44;;;;;;;2.25;2.05;;;34.60;45.90;;;;;;4878768;28;87054;-78
2022/08/04 11:52:15;;;;;;;3.30;1.95;;;34.50;45.30;;;;;;4879886;28;87253;-79
2022/08/04 11:54:43;;;;;;;2.25;1.35;;;34.60;44.40;;;;;;4879011;28;87938;-78
2022/08/04 11:57:10;;;;;;;2.40;1.85;;;34.50;44.90;;;;;;4881552;28;87241;-79
2022/08/04 11:59:37;;;;;;;3.83;1.73;;;34.50;47.30;;;;;;4882639;28;87264;-80
2022/08/04 12:02:25;;;;;;;2.40;1.63;;;34.50;45.70;;;;;;4883153;28;87067;-78
2022/08/04 12:04:59;;;;;;;2.50;1.35;;;34.60;47.20;;;;;;4882329;28;88378;-79
2022/08/04 12:07:44;;;;;;;2.08;1.50;;;34.50;45.00;;;;;;4883144;28;87130;-80
2022/08/04 12:10:47;;;;;;;1.98;1.35;;;34.60;44.40;;;;;;4883180;28;87142;-78
2022/08/04 12:13:25;;;;;;;3.50;1.67;;;34.50;43.40;;;;;;4882856;28;86154;-79
2022/08/04 12:15:56;;;;;;;8.77;1.75;;;34.70;44.20;;;;;;4882999;28;87193;-79
2022/08/04 12:18:44;;;;;;;5.70;2.10;;;34.50;46.30;;;;;;4882936;28;87009;-78
2022/08/04 12:21:32;;;;;;;2.85;1.58;;;34.70;42.20;;;;;;4880089;28;88503;-80
2022/08/04 12:24:04;;;;;;;2.38;1.85;;;34.60;45.40;;;;;;4864065;28;86944;-79
2022/08/04 12:26:40;;;;;;;2.08;1.52;;;34.30;47.50;;;;;;4863539;29;89058;-80
2022/08/04 12:29:08;;;;;;;2.20;1.35;;;34.30;44.10;;;;;;4864120;28;87061;-81
2022/08/04 12:31:57;;;;;;;4.78;1.77;;;34.40;46.80;;;;;;4863423;28;86928;-79
2022/08/04 12:34:39;;;;;;;5.53;2.13;;;34.40;45.00;;;;;;4843235;28;87361;-80
2022/08/04 12:37:32;;;;;;;3.42;1.48;;;34.40;44.10;;;;;;4864149;29;87596;-78
2022/08/04 12:40:03;;;;;;;3.53;1.83;;;34.30;46.10;;;;;;4880200;28;86940;-80
2022/08/04 12:42:49;;;;;;;3.58;1.88;;;34.30;46.60;;;;;;4882534;28;87059;-79
2022/08/04 12:45:17;;;;;;;1.88;1.45;;;34.30;48.40;;;;;;4882684;28;86921;-79
2022/08/04 12:47:45;;;;;;;3.15;1.83;;;34.30;48.50;;;;;;4874216;28;88656;-78
2022/08/04 12:50:13;;;;;;;2.75;2.45;;;34.30;49.60;;;;;;4863387;28;88957;-80
2022/08/04 12:52:49;;;;;;;2.25;1.73;;;34.20;49.40;;;;;;4863918;28;86966;-79
2022/08/04 12:55:17;;;;;;;3.42;2.15;;;34.10;49.70;;;;;;4866269;28;86592;-79
2022/08/04 12:57:44;;;;;;;3.38;1.73;;;34.20;49.30;;;;;;4882461;28;86972;-78
2022/08/04 13:00:10;;;;;;;3.53;1.95;;;34.40;49.30;;;;;;4882328;28;86831;-80
2022/08/04 13:02:42;;;;;;;3.38;1.80;;;34.50;45.10;;;;;;4882461;28;87201;-80
2022/08/04 13:05:12;;;;;;;4.15;1.40;;;34.50;44.70;;;;;;4883136;28;86705;-78
2022/08/04 13:07:42;;;;;;;2.38;1.77;;;34.50;44.00;;;;;;4881478;28;87682;-79
2022/08/04 13:10:16;;;;;;;4.97;1.88;;;34.40;43.50;;;;;;4887152;28;87262;-78
2022/08/04 13:12:51;;;;;;;3.97;1.52;;;34.40;46.30;;;;;;4888740;28;87449;-79
2022/08/04 13:15:21;;;;;;;2.22;1.33;;;34.30;47.10;;;;;;4863157;28;87182;-78
2022/08/04 13:17:52;;;;;;;4.53;1.75;;;34.30;46.40;;;;;;4862965;28;87205;-78
2022/08/04 13:20:30;;;;;;;2.20;1.38;;;34.30;46.00;;;;;;4863245;29;86946;-79
2022/08/04 13:23:02;;;;;;;3.67;1.65;;;34.40;43.90;;;;;;4863330;28;87513;-79
2022/08/04 13:25:30;;;;;;;3.17;1.55;;;34.40;43.10;;;;;;4862669;29;86964;-79
2022/08/04 13:27:58;;;;;;;3.30;1.90;;;34.40;44.40;;;;;;4863341;29;87324;-80
2022/08/04 13:30:26;;;;;;;3.20;1.52;;;34.40;45.00;;;;;;4874894;28;86398;-80
2022/08/04 13:32:56;;;;;;;2.95;1.15;;;34.30;46.60;;;;;;4882220;28;86996;-81
2022/08/04 13:35:23;;;;;;;2.88;1.42;;;34.30;46.40;;;;;;4882091;28;86952;-82
2022/08/04 13:37:51;;;;;;;1.95;1.55;;;34.30;42.10;;;;;;4881430;28;89026;-78
2022/08/04 13:40:24;;;;;;;1.80;0.98;;;34.30;42.40;;;;;;4882157;28;88222;-80
2022/08/04 13:42:51;;;;;;;2.75;1.23;;;34.30;41.10;;;;;;4882410;28;87169;-79
2022/08/04 13:45:22;;;;;;;2.10;1.13;;;34.20;41.10;;;;;;4880178;28;87288;-78
2022/08/04 13:47:50;;;;;;;3.45;1.42;;;34.20;40.80;;;;;;4878060;28;87106;-80
2022/08/04 13:50:22;;;;;;;6.15;1.88;;;34.20;40.50;;;;;;4880230;28;87079;-80
2022/08/04 13:52:51;;;;;;;3.08;1.10;;;34.00;46.30;;;;;;4880001;28;87498;-79
2022/08/04 13:55:24;;;;;;;1.48;1.02;;;34.10;45.40;;;;;;4882588;28;86338;-80
2022/08/04 13:58:16;;;;;;;6.03;1.63;;;34.30;39.40;;;;;;4881098;28;87773;-79
2022/08/04 14:00:45;;;;;;;3.47;1.30;;;34.30;42.50;;;;;;4875975;28;86946;-81
2022/08/04 14:03:20;;;;;;;3.78;1.30;;;34.30;43.10;;;;;;4879738;28;87907;-79
2022/08/04 14:06:09;;;;;;;3.85;1.35;;;34.40;42.40;;;;;;4879992;28;87000;-78
2022/08/04 14:08:44;;;;;;;2.35;1.63;;;34.20;40.70;;;;;;4881612;28;88197;-81
2022/08/04 14:11:10;;;;;;;2.78;1.50;;;34.20;39.70;;;;;;4893787;28;87356;-80
2022/08/04 14:13:37;;;;;;;2.30;1.33;;;34.10;39.50;;;;;;4883314;28;87238;-79
2022/08/04 14:16:13;;;;;;;5.32;1.30;;;34.20;41.30;;;;;;4879468;28;87076;-79
2022/08/04 14:18:39;;;;;;;2.50;1.20;;;34.20;41.80;;;;;;4881370;28;88457;-80
2022/08/04 14:21:16;;;;;;;2.25;1.42;;;34.20;40.80;;;;;;4878559;28;86976;-78
2022/08/04 14:23:45;;;;;;;3.03;1.02;;;34.20;39.30;;;;;;4880138;28;87398;-78
2022/08/04 14:26:31;;;;;;;1.80;1.25;;;34.20;40.40;;;;;;4881529;28;87131;-78
2022/08/04 14:29:07;;;;;;;2.45;1.17;;;34.30;39.40;;;;;;4879512;28;88343;-79
2022/08/04 14:31:33;;;;;;;1.27;0.95;;;34.20;39.40;;;;;;4879999;28;88312;-81
2022/08/04 14:33:59;;;;;;;2.42;2.08;;;34.10;41.40;;;;;;4880463;28;87144;-79
2022/08/04 14:36:25;;;;;;;3.22;1.35;;;34.10;40.50;;;;;;4881098;28;87470;-80
2022/08/04 14:38:56;;;;;;;2.00;1.52;;;34.20;43.40;;;;;;4879745;28;88066;-80
2022/08/04 14:41:42;;;;;;;2.28;1.50;;;34.10;43.60;;;;;;4880868;28;86922;-81
2022/08/04 14:44:08;;;;;;;3.35;1.60;;;34.00;41.90;;;;;;4880702;28;87012;-82
2022/08/04 14:46:47;;;;;;;2.85;1.25;;;34.10;41.90;;;;;;4879364;28;86754;-80
2022/08/04 14:49:13;;;;;;;1.58;1.02;;;34.20;38.90;;;;;;4879633;28;87311;-78
2022/08/04 14:51:51;;;;;;;2.13;1.45;;;34.20;40.00;;;;;;4880893;28;87343;-80
2022/08/04 14:54:28;;;;;;;3.40;1.58;;;34.10;39.20;;;;;;4878162;28;88328;-81
2022/08/04 14:56:59;;;;;;;1.90;1.35;;;34.10;39.90;;;;;;4879053;28;87348;-79
2022/08/04 14:59:25;;;;;;;1.65;0.98;;;34.10;39.70;;;;;;4879178;28;87504;-79
2022/08/04 15:01:53;;;;;;;2.67;1.38;;;34.20;38.80;;;;;;4879006;28;88700;-79
2022/08/04 15:04:24;;;;;;;1.70;1.17;;;34.10;40.40;;;;;;4878575;28;86973;-81
2022/08/04 15:06:50;;;;;;;1.58;0.75;;;34.00;39.40;;;;;;4881378;28;87603;-82
2022/08/04 15:09:16;;;;;;;2.90;1.30;;;33.90;39.60;;;;;;4879408;28;88740;-79
2022/08/04 15:11:43;;;;;;;1.80;1.25;;;34.10;39.20;;;;;;4890287;28;87465;-79
2022/08/04 15:14:08;;;;;;;1.65;0.93;;;34.00;38.80;;;;;;4880318;28;87477;-80
2022/08/04 15:16:34;;;;;;;2.33;1.45;;;34.00;38.30;;;;;;4880506;28;87499;-79
2022/08/04 15:19:00;;;;;;;3.10;1.55;;;34.00;39.10;;;;;;4880627;28;88247;-80
2022/08/04 15:21:27;;;;;;;2.88;1.33;;;34.10;40.10;;;;;;4879524;28;87836;-78
2022/08/04 15:23:55;;;;;;;2.03;1.33;;;34.10;39.20;;;;;;4879068;28;86834;-78
2022/08/04 15:26:32;;;;;;;2.40;1.27;;;34.20;39.00;;;;;;4880800;28;87136;-78
2022/08/04 15:29:05;;;;;;;3.25;0.95;;;34.10;38.80;;;;;;4879669;28;87274;-78
2022/08/04 15:31:38;;;;;;;4.75;1.08;;;33.90;39.10;;;;;;4880892;28;87457;-79
2022/08/04 15:34:05;;;;;;;2.22;1.52;;;33.70;38.50;;;;;;4883972;28;87250;-78
2022/08/04 15:36:41;;;;;;;1.60;1.25;;;33.50;40.60;;;;;;4883319;28;86639;-78
2022/08/04 15:39:43;;;;;;;2.20;1.00;;;33.30;41.60;;;;;;4880370;28;88244;-80
2022/08/04 15:42:29;;;;;;;1.65;0.90;;;33.50;39.00;;;;;;4883520;28;86884;-80
2022/08/04 15:45:13;;;;;;;3.72;1.15;;;33.70;39.40;;;;;;4881470;28;87860;-81
2022/08/04 15:47:40;;;;;;;3.28;1.13;;;33.80;39.40;;;;;;4882448;28;87263;-78
2022/08/04 15:50:06;;;;;;;1.23;0.93;;;33.90;37.90;;;;;;4883345;28;87152;-78
2022/08/04 15:52:54;;;;;;;1.48;0.98;;;33.90;38.90;;;;;;4883174;28;87023;-80
2022/08/04 15:55:34;;;;;;;2.67;1.55;;;33.90;38.90;;;;;;4886336;28;87436;-80
2022/08/04 15:58:05;;;;;;;2.65;1.42;;;33.80;39.40;;;;;;4883390;28;87022;-82
2022/08/04 16:03:33;;;;;;;3.00;1.00;;;33.90;38.90;;;;;;4877215;28;87038;-84
2022/08/04 16:06:19;;;;;;;4.93;0.95;;;33.90;37.90;;;;;;4880330;28;88626;-79
2022/08/04 16:08:51;;;;;;;2.60;1.35;;;33.90;38.30;;;;;;4876913;28;87641;-80
2022/08/04 16:11:22;;;;;;;1.88;0.95;;;33.90;40.00;;;;;;4892970;28;89179;-81
2022/08/04 16:14:11;;;;;;;4.50;1.23;;;33.80;39.30;;;;;;4880966;28;90438;-81
2022/08/04 16:16:40;;;;;;;2.72;0.95;;;33.90;38.00;;;;;;4876932;28;87136;-81
2022/08/04 16:19:32;;;;;;;1.17;0.80;;;33.90;36.40;;;;;;4882136;28;86875;-79
2022/08/04 16:21:59;;;;;;;3.65;1.15;;;33.80;37.50;;;;;;4882729;28;87664;-78